createdAt,value
2022-11-24T00:00:13.915Z,21.10
2022-11-24T00:03:20.865Z,26.40
2022-11-24T00:06:12.004Z,24.10
2022-11-24T00:08:59.028Z,30.20
2022-11-24T00:11:45.697Z,22.80
2022-11-24T00:14:32.868Z,24.40
2022-11-24T00:17:19.782Z,24.00
2022-11-24T00:20:06.695Z,26.60
2022-11-24T00:22:53.802Z,25.40
2022-11-24T00:25:40.640Z,30.70
2022-11-24T00:28:27.575Z,25.40
2022-11-24T00:31:24.674Z,24.60
2022-11-24T00:34:13.248Z,27.20
2022-11-24T00:36:59.939Z,20.70
2022-11-24T00:39:47.429Z,23.50
2022-11-24T00:42:34.004Z,25.80
2022-11-24T00:45:21.744Z,23.70
2022-11-24T00:48:08.669Z,24.70
2022-11-24T00:51:02.907Z,22.40
2022-11-24T00:53:49.801Z,26.10
2022-11-24T00:56:36.715Z,29.80
2022-11-24T00:59:23.396Z,26.00
2022-11-24T01:02:11.166Z,25.70
2022-11-24T01:04:58.296Z,23.50
2022-11-24T01:07:45.073Z,26.70
2022-11-24T01:10:32.005Z,21.00
2022-11-24T01:13:19.217Z,24.80
2022-11-24T01:16:06.496Z,27.60
2022-11-24T01:18:53.747Z,23.20
2022-11-24T01:21:40.717Z,25.30
2022-11-24T01:24:27.490Z,27.30
2022-11-24T01:27:14.101Z,21.50
2022-11-24T01:30:00.765Z,23.50
2022-11-24T01:32:47.380Z,36.20
2022-11-24T01:35:34.309Z,33.40
2022-11-24T01:38:21.395Z,23.80
2022-11-24T01:41:11.325Z,37.90
2022-11-24T01:43:58.283Z,39.40
2022-11-24T01:46:47.553Z,27.70
2022-11-24T01:49:39.820Z,31.00
2022-11-24T01:55:15.986Z,25.20
2022-11-24T01:58:05.501Z,23.50
2022-11-24T02:04:39.086Z,17.80
2022-11-24T02:07:26.521Z,26.80
2022-11-24T02:10:14.742Z,26.20
2022-11-24T02:13:01.867Z,30.60
2022-11-24T02:15:48.923Z,26.50
2022-11-24T02:18:37.020Z,33.50
2022-11-24T02:21:24.093Z,21.20
2022-11-24T02:24:25.083Z,25.80
2022-11-24T02:27:11.969Z,22.30
2022-11-24T02:29:59.114Z,24.50
2022-11-24T02:32:46.142Z,19.70
2022-11-24T02:35:32.615Z,24.60
2022-11-24T02:38:19.519Z,23.80
2022-11-24T02:41:07.921Z,18.50
2022-11-24T02:44:00.204Z,24.30
2022-11-24T02:49:34.066Z,27.40
2022-11-24T02:52:20.684Z,27.40
2022-11-24T02:55:07.845Z,31.70
2022-11-24T02:57:54.396Z,33.30
2022-11-24T03:00:41.494Z,38.20
2022-11-24T03:03:28.167Z,79.50
2022-11-24T03:06:15.515Z,44.00
2022-11-24T03:09:02.364Z,30.50
2022-11-24T03:11:49.146Z,37.90
2022-11-24T03:14:35.959Z,30.20
2022-11-24T03:17:23.029Z,32.30
2022-11-24T03:20:09.982Z,29.20
2022-11-24T03:22:56.939Z,29.80
2022-11-24T03:25:43.385Z,29.00
2022-11-24T03:28:30.416Z,23.80
2022-11-24T03:31:16.931Z,28.30
2022-11-24T03:34:03.973Z,21.40
2022-11-24T03:36:50.992Z,29.90
2022-11-24T03:39:37.787Z,29.20
2022-11-24T03:42:24.371Z,24.20
2022-11-24T03:45:38.208Z,21.00
2022-11-24T03:48:18.887Z,27.30
2022-11-24T03:51:06.459Z,39.60
2022-11-24T03:53:53.268Z,27.40
2022-11-24T03:56:39.965Z,31.40
2022-11-24T03:59:26.620Z,38.80
2022-11-24T04:02:13.575Z,30.70
2022-11-24T04:05:00.213Z,29.50
2022-11-24T04:07:47.446Z,25.70
2022-11-24T04:10:36.511Z,26.80
2022-11-24T04:13:24.707Z,33.30
2022-11-24T04:16:11.390Z,23.50
2022-11-24T04:18:58.200Z,23.60
2022-11-24T04:21:44.918Z,30.30
2022-11-24T04:24:32.004Z,35.00
2022-11-24T04:27:19.178Z,29.30
2022-11-24T04:30:07.638Z,28.40
2022-11-24T04:32:54.425Z,24.90
2022-11-24T04:35:41.580Z,25.00
2022-11-24T04:39:25.933Z,20.50
2022-11-24T04:41:34.837Z,24.60
2022-11-24T04:44:21.484Z,30.30
2022-11-24T04:47:08.443Z,30.10
2022-11-24T04:49:55.105Z,27.10
2022-11-24T04:52:41.675Z,30.40
2022-11-24T04:55:28.426Z,25.40
2022-11-24T04:58:14.977Z,31.50
2022-11-24T05:01:01.497Z,28.00
2022-11-24T05:03:48.353Z,183.20
2022-11-24T05:06:35.173Z,114.30
2022-11-24T05:09:21.906Z,30.50
2022-11-24T05:12:08.458Z,35.30
2022-11-24T05:14:55.055Z,34.50
2022-11-24T05:17:41.739Z,27.60
2022-11-24T05:20:28.886Z,29.10
2022-11-24T05:23:15.718Z,38.40
2022-11-24T05:26:02.238Z,40.40
2022-11-24T05:28:48.945Z,25.10
2022-11-24T05:31:35.509Z,28.70
2022-11-24T05:34:21.913Z,30.10
2022-11-24T05:37:08.732Z,27.10
2022-11-24T05:39:55.252Z,27.60
2022-11-24T05:42:46.643Z,27.00
2022-11-24T05:45:33.908Z,33.90
2022-11-24T05:48:20.869Z,43.10
2022-11-24T05:51:09.414Z,30.10
2022-11-24T05:53:56.876Z,29.00
2022-11-24T05:59:48.016Z,34.70
2022-11-24T06:02:34.634Z,36.40
2022-11-24T06:05:21.919Z,30.90
2022-11-24T06:08:08.766Z,29.60
2022-11-24T06:11:17.305Z,27.80
2022-11-24T06:14:08.309Z,26.30
2022-11-24T06:16:57.988Z,40.60
2022-11-24T06:19:47.849Z,33.10
2022-11-24T06:22:34.784Z,38.30
2022-11-24T06:25:21.164Z,32.20
2022-11-24T06:28:07.855Z,29.00
2022-11-24T06:30:54.409Z,29.20
2022-11-24T06:33:41.488Z,25.80
2022-11-24T06:36:28.383Z,33.40
2022-11-24T06:39:14.987Z,28.90
2022-11-24T06:42:01.658Z,26.30
2022-11-24T06:44:48.829Z,37.40
2022-11-24T06:47:35.764Z,34.10
2022-11-24T06:50:22.928Z,33.60
2022-11-24T06:53:09.799Z,52.40
2022-11-24T06:55:58.035Z,42.60
2022-11-24T06:58:46.048Z,40.20
2022-11-24T07:01:32.746Z,41.40
2022-11-24T07:04:19.583Z,45.20
2022-11-24T07:07:06.190Z,35.80
2022-11-24T07:09:52.840Z,37.70
2022-11-24T07:12:39.721Z,47.10
2022-11-24T07:15:28.252Z,33.40
2022-11-24T07:18:14.982Z,38.20
2022-11-24T07:21:03.981Z,34.50
2022-11-24T07:23:51.676Z,31.30
2022-11-24T07:26:38.699Z,40.40
2022-11-24T07:29:25.466Z,34.20
2022-11-24T07:32:12.161Z,45.80
2022-11-24T07:34:58.909Z,47.00
2022-11-24T07:37:45.525Z,37.40
2022-11-24T07:40:32.355Z,37.00
2022-11-24T07:43:20.429Z,43.60
2022-11-24T07:46:10.219Z,40.50
2022-11-24T07:48:57.396Z,34.60
2022-11-24T07:51:44.592Z,40.90
2022-11-24T07:54:31.304Z,44.40
2022-11-24T07:57:18.331Z,52.00
2022-11-24T08:00:05.736Z,48.00
2022-11-24T08:02:52.457Z,48.50
2022-11-24T08:05:54.479Z,37.90
2022-11-24T08:08:46.312Z,34.80
2022-11-24T08:11:33.129Z,39.80
2022-11-24T08:14:20.043Z,39.30
2022-11-24T08:17:06.547Z,38.40
2022-11-24T08:19:53.345Z,37.50
2022-11-24T08:22:39.859Z,38.10
2022-11-24T08:25:31.973Z,49.50
2022-11-24T08:28:18.431Z,36.50
2022-11-24T08:31:06.024Z,36.10
2022-11-24T08:33:54.741Z,40.60
2022-11-24T08:36:41.189Z,37.80
2022-11-24T08:39:27.640Z,48.90
2022-11-24T08:42:14.414Z,50.20
2022-11-24T08:45:13.058Z,67.30
2022-11-24T08:48:06.808Z,49.60
2022-11-24T08:50:53.519Z,28.40
2022-11-24T08:53:41.022Z,28.60
2022-11-24T08:56:28.942Z,28.40
2022-11-24T08:59:15.352Z,33.10
2022-11-24T09:02:02.015Z,34.10
2022-11-24T09:04:48.407Z,41.90
2022-11-24T09:07:35.008Z,55.00
2022-11-24T09:10:21.923Z,56.10
2022-11-24T09:13:08.287Z,50.60
2022-11-24T09:15:54.998Z,54.00
2022-11-24T09:18:42.630Z,50.80
2022-11-24T09:21:31.337Z,51.00
2022-11-24T09:24:18.108Z,70.10
2022-11-24T09:27:04.807Z,43.30
2022-11-24T09:29:52.233Z,62.90
2022-11-24T09:32:38.725Z,61.20
2022-11-24T09:35:25.201Z,48.00
2022-11-24T09:38:13.625Z,43.00
2022-11-24T09:41:15.609Z,44.30
2022-11-24T09:44:02.281Z,35.80
2022-11-24T09:46:59.808Z,37.90
2022-11-24T09:50:10.282Z,56.80
2022-11-24T09:53:05.920Z,48.50
2022-11-24T09:55:53.994Z,47.30
2022-11-24T09:58:48.273Z,45.60
2022-11-24T10:01:37.310Z,49.80
2022-11-24T10:04:31.934Z,57.60
2022-11-24T10:07:25.135Z,35.30
2022-11-24T10:10:24.189Z,56.90
2022-11-24T10:13:26.893Z,42.10
2022-11-24T10:16:33.853Z,41.70
2022-11-24T10:19:37.500Z,37.00
2022-11-24T10:22:43.062Z,34.70
2022-11-24T10:25:49.813Z,29.80
2022-11-24T10:28:36.160Z,29.80
2022-11-24T10:31:36.774Z,40.50
2022-11-24T10:34:34.563Z,35.90
2022-11-24T10:37:28.951Z,40.90
2022-11-24T10:40:40.497Z,39.40
2022-11-24T10:43:22.200Z,42.60
2022-11-24T10:46:14.999Z,48.70
2022-11-24T10:49:04.013Z,48.80
2022-11-24T10:52:12.654Z,45.10
2022-11-24T10:55:00.496Z,40.60
2022-11-24T10:57:47.203Z,29.10
2022-11-24T11:00:34.472Z,29.10
2022-11-24T11:03:22.565Z,37.40
2022-11-24T11:06:13.682Z,31.20
2022-11-24T11:09:06.827Z,39.30
2022-11-24T11:11:54.028Z,28.80
2022-11-24T11:14:40.876Z,35.00
2022-11-24T11:17:27.774Z,19.90
2022-11-24T11:20:18.840Z,37.10
2022-11-24T11:23:15.053Z,32.70
2022-11-24T11:26:19.124Z,31.30
2022-11-24T11:35:29.193Z,41.00
2022-11-24T11:38:15.812Z,32.70
2022-11-24T11:41:03.032Z,52.70
2022-11-24T11:43:53.455Z,34.40
2022-11-24T11:46:40.530Z,36.30
2022-11-24T11:49:27.398Z,36.70
2022-11-24T11:52:26.146Z,40.10
2022-11-24T11:55:22.135Z,44.90
2022-11-24T11:58:18.632Z,35.10
2022-11-24T12:01:20.616Z,40.30
2022-11-24T12:04:25.941Z,35.40
2022-11-24T12:07:18.847Z,31.50
2022-11-24T12:10:08.605Z,35.50
2022-11-24T12:13:30.347Z,36.70
2022-11-24T12:16:31.119Z,42.90
2022-11-24T12:19:17.807Z,39.70
2022-11-24T12:22:17.784Z,38.20
2022-11-24T12:25:16.694Z,49.70
2022-11-24T12:28:03.432Z,44.50
2022-11-24T12:30:59.038Z,46.30
2022-11-24T12:33:51.688Z,45.10
2022-11-24T12:36:53.972Z,29.60
2022-11-24T12:39:57.236Z,24.10
2022-11-24T12:42:50.479Z,28.50
2022-11-24T12:46:15.593Z,25.40
2022-11-24T12:49:06.473Z,22.90
2022-11-24T12:52:04.895Z,25.50
2022-11-24T12:54:51.408Z,38.40
2022-11-24T12:57:42.615Z,80.70
2022-11-24T13:00:40.568Z,81.20
2022-11-24T13:03:32.677Z,130.40
2022-11-24T13:06:19.419Z,178.90
2022-11-24T13:09:12.896Z,73.00
2022-11-24T13:12:13.586Z,49.00
2022-11-24T13:14:59.961Z,112.00
2022-11-24T13:18:02.840Z,34.50
2022-11-24T13:20:53.695Z,41.70
2022-11-24T13:23:40.102Z,31.60
2022-11-24T13:26:41.752Z,25.20
2022-11-24T13:29:28.895Z,26.50
2022-11-24T13:32:19.388Z,30.00
2022-11-24T13:35:13.352Z,22.10
2022-11-24T13:37:59.969Z,41.20
2022-11-24T13:41:12.861Z,47.40
2022-11-24T13:44:12.185Z,48.10
2022-11-24T13:47:06.519Z,26.10
2022-11-24T13:49:53.843Z,27.30
2022-11-24T13:52:40.449Z,28.40
2022-11-24T13:55:32.744Z,30.80
2022-11-24T13:58:19.604Z,32.90
2022-11-24T14:01:14.899Z,24.90
2022-11-24T14:04:34.395Z,34.70
2022-11-24T14:07:13.723Z,41.80
2022-11-24T14:10:01.431Z,42.00
2022-11-24T14:12:48.076Z,37.30
2022-11-24T14:15:36.481Z,31.20
2022-11-24T14:18:23.727Z,33.60
2022-11-24T14:21:24.181Z,33.30
2022-11-24T14:24:24.237Z,27.20
2022-11-24T14:27:15.857Z,37.70
2022-11-24T14:30:17.728Z,35.80
2022-11-24T14:33:04.312Z,28.30
2022-11-24T14:35:51.245Z,37.20
2022-11-24T14:38:38.201Z,35.20
2022-11-24T14:41:28.332Z,31.00
2022-11-24T14:44:21.485Z,40.60
2022-11-24T14:47:17.207Z,33.10
2022-11-24T14:50:15.220Z,44.70
2022-11-24T14:53:02.411Z,35.80
2022-11-24T14:56:06.381Z,32.00
2022-11-24T14:58:54.297Z,37.50
2022-11-24T15:01:41.275Z,36.00
2022-11-24T15:07:37.392Z,38.60
2022-11-24T15:10:33.755Z,39.60
2022-11-24T15:13:22.540Z,39.50
2022-11-24T15:16:16.091Z,44.30
2022-11-24T15:19:03.013Z,39.50
2022-11-24T15:21:50.209Z,36.70
2022-11-24T15:24:48.426Z,44.30
2022-11-24T15:27:35.342Z,37.80
2022-11-24T15:30:21.990Z,30.30
2022-11-24T15:33:13.768Z,35.50
2022-11-24T15:36:00.912Z,30.00
2022-11-24T15:38:47.708Z,36.20
2022-11-24T15:41:34.490Z,28.30
2022-11-24T15:44:21.113Z,29.50
2022-11-24T15:47:08.571Z,29.90
2022-11-24T15:49:55.940Z,35.70
2022-11-24T15:52:43.195Z,44.20
2022-11-24T15:55:30.090Z,37.90
2022-11-24T15:58:16.863Z,49.70
2022-11-24T16:01:03.622Z,42.20
2022-11-24T16:03:51.313Z,42.00
2022-11-24T16:06:37.839Z,43.50
2022-11-24T16:09:24.655Z,50.90
2022-11-24T16:12:11.498Z,47.00
2022-11-24T16:14:58.117Z,49.10
2022-11-24T16:17:45.168Z,45.10
2022-11-24T16:20:32.478Z,37.90
2022-11-24T16:23:19.502Z,38.80
2022-11-24T16:26:06.536Z,37.80
2022-11-24T16:28:53.322Z,38.80
2022-11-24T16:31:39.946Z,35.30
2022-11-24T16:34:26.711Z,55.70
2022-11-24T16:37:13.591Z,47.50
2022-11-24T16:40:02.811Z,37.90
2022-11-24T16:42:49.304Z,47.00
2022-11-24T16:45:38.452Z,41.70
2022-11-24T16:48:27.844Z,34.30
2022-11-24T16:51:15.345Z,39.10
2022-11-24T16:54:02.164Z,38.00
2022-11-24T16:56:48.951Z,39.50
2022-11-24T16:59:35.638Z,40.90
2022-11-24T17:02:22.582Z,39.80
2022-11-24T17:05:09.549Z,43.10
2022-11-24T17:07:56.668Z,40.00
2022-11-24T17:10:43.035Z,44.40
2022-11-24T17:13:31.980Z,42.10
2022-11-24T17:16:20.084Z,46.70
2022-11-24T17:19:06.686Z,43.50
2022-11-24T17:21:54.630Z,37.70
2022-11-24T17:24:41.722Z,42.60
2022-11-24T17:27:28.765Z,39.00
2022-11-24T17:30:17.212Z,34.70
2022-11-24T17:33:04.005Z,38.10
2022-11-24T17:35:50.905Z,44.60
2022-11-24T17:38:37.940Z,43.40
2022-11-24T17:41:24.561Z,41.20
2022-11-24T17:44:21.376Z,39.30
2022-11-24T17:47:08.177Z,47.80
2022-11-24T17:49:54.768Z,50.50
2022-11-24T17:52:41.624Z,52.30
2022-11-24T17:55:28.198Z,46.00
2022-11-24T17:58:14.722Z,51.40
2022-11-24T18:01:01.737Z,74.50
2022-11-24T18:03:53.223Z,54.80
2022-11-24T18:09:27.868Z,56.80
2022-11-24T18:12:14.675Z,55.20
2022-11-24T18:15:01.654Z,56.50
2022-11-24T18:17:48.491Z,47.70
2022-11-24T18:20:35.506Z,53.90
2022-11-24T18:23:22.185Z,49.40
2022-11-24T18:26:11.708Z,44.30
2022-11-24T18:28:58.622Z,45.20
2022-11-24T18:31:45.863Z,52.20
2022-11-24T18:34:32.370Z,35.70
2022-11-24T18:37:19.508Z,38.20
2022-11-24T18:40:06.366Z,29.60
2022-11-24T18:42:53.329Z,34.70
2022-11-24T18:45:39.893Z,38.70
2022-11-24T18:48:36.909Z,34.70
2022-11-24T18:51:23.655Z,30.20
2022-11-24T18:54:10.471Z,27.80
2022-11-24T18:57:02.963Z,31.70
2022-11-24T18:59:50.226Z,42.80
2022-11-24T19:02:37.000Z,67.90
2022-11-24T19:05:24.023Z,85.70
2022-11-24T19:08:10.559Z,81.80
2022-11-24T19:10:57.748Z,126.70
2022-11-24T19:13:44.542Z,157.10
2022-11-24T19:16:31.825Z,131.60
2022-11-24T19:19:18.213Z,86.80
2022-11-24T19:22:05.118Z,42.60
2022-11-24T19:24:51.953Z,38.50
2022-11-24T19:27:38.911Z,43.70
2022-11-24T19:30:25.810Z,33.60
2022-11-24T19:33:12.793Z,36.10
2022-11-24T19:36:10.810Z,31.00
2022-11-24T19:38:58.506Z,34.00
2022-11-24T19:41:45.334Z,37.50
2022-11-24T19:44:32.610Z,47.10
2022-11-24T19:47:19.548Z,42.50
2022-11-24T19:50:10.336Z,45.90
2022-11-24T19:52:57.259Z,44.70
2022-11-24T19:55:53.993Z,42.80
2022-11-24T19:58:40.753Z,64.60
2022-11-24T20:01:29.386Z,79.90
2022-11-24T20:04:16.592Z,94.70
2022-11-24T20:07:03.373Z,117.20
2022-11-24T20:09:50.440Z,105.20
2022-11-24T20:12:37.103Z,143.00
2022-11-24T20:15:23.892Z,93.70
2022-11-24T20:18:10.503Z,104.40
2022-11-24T20:21:23.625Z,81.50
2022-11-24T20:24:12.630Z,144.90
2022-11-24T20:27:00.167Z,149.40
2022-11-24T20:29:47.222Z,127.00
2022-11-24T20:32:33.981Z,88.30
2022-11-24T20:35:21.165Z,109.50
2022-11-24T20:38:08.118Z,88.90
2022-11-24T20:41:04.693Z,82.60
2022-11-24T20:43:58.014Z,76.40
2022-11-24T20:46:45.885Z,84.70
2022-11-24T20:49:32.632Z,63.80
2022-11-24T20:52:19.584Z,60.40
2022-11-24T20:55:07.224Z,63.60
2022-11-24T20:57:54.375Z,59.80
2022-11-24T21:00:41.157Z,56.50
2022-11-24T21:03:27.743Z,56.10
2022-11-24T21:06:14.621Z,70.90
2022-11-24T21:09:03.974Z,58.30
2022-11-24T21:11:51.190Z,56.40
2022-11-24T21:14:38.455Z,51.60
2022-11-24T21:17:25.631Z,40.80
2022-11-24T21:20:12.954Z,51.10
2022-11-24T21:22:59.911Z,54.80
2022-11-24T21:25:46.824Z,62.50
2022-11-24T21:28:34.215Z,46.60
2022-11-24T21:31:21.611Z,64.10
2022-11-24T21:34:08.628Z,55.70
2022-11-24T21:36:55.469Z,55.80
2022-11-24T21:39:44.626Z,47.00
2022-11-24T21:42:31.837Z,61.30
2022-11-24T21:45:18.545Z,50.00
2022-11-24T21:48:05.405Z,62.00
2022-11-24T21:50:51.947Z,90.30
2022-11-24T21:53:38.818Z,94.50
2022-11-24T21:56:25.565Z,71.80
2022-11-24T21:59:12.228Z,65.00
2022-11-24T22:01:58.995Z,51.70
2022-11-24T22:04:45.894Z,47.20
2022-11-24T22:07:32.639Z,56.30
2022-11-24T22:10:19.559Z,57.20
2022-11-24T22:13:06.431Z,50.80
2022-11-24T22:16:09.629Z,46.30
2022-11-24T22:18:56.160Z,131.10
2022-11-24T22:21:43.160Z,73.80
2022-11-24T22:24:29.707Z,64.10
2022-11-24T22:27:16.541Z,53.80
2022-11-24T22:30:05.963Z,53.10
2022-11-24T22:32:53.441Z,78.50
2022-11-24T22:35:39.972Z,55.90
2022-11-24T22:38:27.027Z,65.30
2022-11-24T22:41:15.047Z,81.40
2022-11-24T22:44:01.992Z,102.40
2022-11-24T22:46:48.852Z,96.60
2022-11-24T22:49:35.920Z,119.00
2022-11-24T22:52:22.486Z,88.60
2022-11-24T22:55:09.250Z,67.00
2022-11-24T22:57:57.165Z,86.90
2022-11-24T23:00:44.049Z,78.50
2022-11-24T23:03:30.808Z,73.20
2022-11-24T23:06:18.791Z,62.80
2022-11-24T23:09:06.008Z,66.40
2022-11-24T23:11:52.620Z,62.40
2022-11-24T23:14:39.518Z,71.00
2022-11-24T23:17:26.108Z,72.40
2022-11-24T23:20:13.020Z,64.20
2022-11-24T23:23:00.202Z,98.80
2022-11-24T23:25:47.337Z,69.10
2022-11-24T23:28:34.084Z,65.10
2022-11-24T23:31:21.654Z,79.90
2022-11-24T23:34:09.264Z,79.00
2022-11-24T23:36:55.829Z,80.30
2022-11-24T23:39:42.532Z,71.00
2022-11-24T23:42:29.262Z,82.60
2022-11-24T23:45:16.102Z,84.80
2022-11-24T23:48:02.932Z,85.40
2022-11-24T23:50:49.762Z,76.80
2022-11-24T23:53:36.939Z,94.60
2022-11-24T23:56:28.187Z,89.30
2022-11-24T23:59:15.100Z,89.90
